createdAt,value
2023-02-27T00:00:12.173Z,3.7
2023-02-27T00:01:29.102Z,3.6
2023-02-27T00:02:46.118Z,3.4
2023-02-27T00:04:03.198Z,3.3
2023-02-27T00:05:20.107Z,3.1
2023-02-27T00:06:37.082Z,2.9
2023-02-27T00:07:54.112Z,2.8
2023-02-27T00:09:11.122Z,2.8
2023-02-27T00:10:28.090Z,3
2023-02-27T00:11:45.105Z,3
2023-02-27T00:13:02.106Z,3
2023-02-27T00:14:19.148Z,3.1
2023-02-27T00:15:36.335Z,3.3
2023-02-27T00:16:53.108Z,3.5
2023-02-27T00:18:10.144Z,3.7
2023-02-27T00:19:27.184Z,3.8
2023-02-27T00:20:44.141Z,3.9
2023-02-27T00:22:01.111Z,3.9
2023-02-27T00:23:18.113Z,3.9
2023-02-27T00:24:35.134Z,3.9
2023-02-27T00:25:52.147Z,3.8
2023-02-27T00:27:09.111Z,3.7
2023-02-27T00:28:26.114Z,3.5
2023-02-27T00:29:43.138Z,3.4
2023-02-27T00:31:00.316Z,3.3
2023-02-27T00:32:17.145Z,3.2
2023-02-27T00:33:34.149Z,3
2023-02-27T00:34:51.120Z,2.9
2023-02-27T00:36:08.190Z,3
2023-02-27T00:37:25.123Z,3.2
2023-02-27T00:38:42.127Z,3.1
2023-02-27T00:39:59.134Z,3.1
2023-02-27T00:41:16.303Z,3.3
2023-02-27T00:42:33.145Z,3.3
2023-02-27T00:43:50.159Z,3.2
2023-02-27T00:45:07.209Z,3.3
2023-02-27T00:46:24.185Z,3.4
2023-02-27T00:47:41.132Z,3.6
2023-02-27T00:48:58.128Z,3.6
2023-02-27T00:50:15.169Z,3.7
2023-02-27T00:51:32.142Z,3.6
2023-02-27T00:52:49.174Z,3.4
2023-02-27T00:54:06.150Z,3.3
2023-02-27T00:55:23.167Z,3.4
2023-02-27T00:56:40.192Z,3.4
2023-02-27T00:57:57.151Z,3.4
2023-02-27T00:59:14.166Z,3.3
2023-02-27T01:00:31.220Z,3.3
2023-02-27T01:01:48.205Z,3.2
2023-02-27T01:03:05.164Z,3.2
2023-02-27T01:04:22.167Z,3
2023-02-27T01:05:39.190Z,3.1
2023-02-27T01:06:56.165Z,3.2
2023-02-27T01:08:13.172Z,3.2
2023-02-27T01:09:30.157Z,3
2023-02-27T01:10:47.196Z,2.8
2023-02-27T01:12:04.166Z,2.8
2023-02-27T01:13:21.181Z,2.8
2023-02-27T01:14:38.200Z,2.8
2023-02-27T01:15:55.212Z,2.8
2023-02-27T01:17:12.232Z,2.8
2023-02-27T01:18:29.183Z,2.7
2023-02-27T01:19:46.202Z,2.7
2023-02-27T01:21:03.207Z,2.8
2023-02-27T01:22:20.181Z,2.9
2023-02-27T01:23:37.218Z,3.2
2023-02-27T01:24:54.217Z,3.3
2023-02-27T01:26:11.214Z,3.4
2023-02-27T01:27:28.210Z,3.3
2023-02-27T01:28:45.184Z,3.4
2023-02-27T01:30:02.216Z,3.4
2023-02-27T01:31:19.246Z,3.3
2023-02-27T01:32:36.271Z,3.2
2023-02-27T01:33:53.201Z,3.1
2023-02-27T01:35:10.203Z,3
2023-02-27T01:36:27.233Z,3
2023-02-27T01:37:44.197Z,2.9
2023-02-27T01:39:01.216Z,3
2023-02-27T01:40:18.223Z,3
2023-02-27T01:41:35.272Z,3
2023-02-27T01:42:52.209Z,3
2023-02-27T01:44:09.208Z,3.2
2023-02-27T01:45:26.207Z,3.2
2023-02-27T01:46:43.236Z,3.1
2023-02-27T01:48:00.234Z,3.1
2023-02-27T01:49:17.255Z,3
2023-02-27T01:50:34.224Z,3
2023-02-27T01:51:51.240Z,3
2023-02-27T01:53:08.213Z,2.9
2023-02-27T01:54:25.258Z,3
2023-02-27T01:55:42.227Z,3.2
2023-02-27T01:56:59.253Z,3.2
2023-02-27T01:58:16.262Z,3.3
2023-02-27T01:59:33.228Z,3.3
2023-02-27T02:00:50.368Z,3.4
2023-02-27T02:02:07.282Z,3.3
2023-02-27T02:03:24.274Z,3.2
2023-02-27T02:04:41.237Z,3.1
2023-02-27T02:05:58.288Z,3
2023-02-27T02:07:15.329Z,2.8
2023-02-27T02:08:32.251Z,2.8
2023-02-27T02:09:49.240Z,2.8
2023-02-27T02:11:06.244Z,2.9
2023-02-27T02:12:23.267Z,3.1
2023-02-27T02:13:40.252Z,3
2023-02-27T02:14:57.243Z,2.9
2023-02-27T02:16:14.267Z,3
2023-02-27T02:17:31.292Z,3
2023-02-27T02:18:48.271Z,3
2023-02-27T02:20:05.362Z,2.9
2023-02-27T02:21:22.269Z,2.9
2023-02-27T02:22:39.319Z,3
2023-02-27T02:23:56.255Z,3
2023-02-27T02:25:13.272Z,2.9
2023-02-27T02:26:33.134Z,2.8
2023-02-27T02:27:47.342Z,2.7
2023-02-27T02:29:04.268Z,2.7
2023-02-27T02:30:21.273Z,2.6
2023-02-27T02:31:38.404Z,2.6
2023-02-27T02:32:55.310Z,2.5
2023-02-27T02:34:12.364Z,2.4
2023-02-27T02:35:29.278Z,2.3
2023-02-27T02:36:46.271Z,2.3
2023-02-27T02:38:03.283Z,2.3
2023-02-27T02:39:20.318Z,2.4
2023-02-27T02:40:37.283Z,2.5
2023-02-27T02:41:54.285Z,2.5
2023-02-27T02:43:11.307Z,2.5
2023-02-27T02:44:28.282Z,2.6
2023-02-27T02:45:45.345Z,2.7
2023-02-27T02:47:02.306Z,2.8
2023-02-27T02:48:19.317Z,2.9
2023-02-27T02:49:36.404Z,2.9
2023-02-27T02:50:53.292Z,3
2023-02-27T02:52:10.289Z,2.8
2023-02-27T02:53:36.030Z,2.8
2023-02-27T02:54:44.360Z,2.7
2023-02-27T02:56:01.308Z,2.6
2023-02-27T02:57:18.331Z,2.7
2023-02-27T02:58:35.302Z,2.7
2023-02-27T02:59:52.358Z,2.8
2023-02-27T03:01:09.317Z,2.7
2023-02-27T03:02:26.307Z,2.7
2023-02-27T03:03:43.310Z,2.8
2023-02-27T03:05:00.383Z,2.9
2023-02-27T03:06:17.373Z,2.8
2023-02-27T03:07:34.388Z,2.7
2023-02-27T03:08:51.308Z,2.4
2023-02-27T03:10:08.320Z,2.3
2023-02-27T03:11:25.749Z,2.3
2023-02-27T03:12:42.400Z,2.4
2023-02-27T03:13:59.329Z,2.4
2023-02-27T03:15:16.331Z,2.4
2023-02-27T03:16:33.363Z,2.5
2023-02-27T03:17:50.333Z,2.4
2023-02-27T03:19:07.324Z,2.3
2023-02-27T03:20:24.359Z,2.4
2023-02-27T03:21:41.357Z,2.4
2023-02-27T03:22:58.344Z,2.5
2023-02-27T03:24:15.329Z,2.5
2023-02-27T03:25:32.356Z,2.4
2023-02-27T03:26:49.492Z,2.4
2023-02-27T03:28:06.423Z,2.3
2023-02-27T03:29:23.356Z,2.3
2023-02-27T03:30:40.555Z,2.3
2023-02-27T03:31:57.509Z,2.4
2023-02-27T03:33:14.389Z,2.5
2023-02-27T03:34:31.344Z,2.5
2023-02-27T03:35:48.485Z,2.4
2023-02-27T03:37:05.344Z,2.3
2023-02-27T03:38:22.406Z,2.2
2023-02-27T03:39:39.438Z,2.1
2023-02-27T03:40:56.359Z,2.2
2023-02-27T03:42:13.391Z,2.2
2023-02-27T03:43:30.423Z,2.1
2023-02-27T03:44:47.375Z,2
2023-02-27T03:46:04.452Z,1.9
2023-02-27T03:47:21.409Z,2
2023-02-27T03:48:38.421Z,1.9
2023-02-27T03:49:55.360Z,1.8
2023-02-27T03:51:12.424Z,1.8
2023-02-27T03:52:29.359Z,1.7
2023-02-27T03:53:46.411Z,1.7
2023-02-27T03:55:03.412Z,1.7
2023-02-27T03:56:20.385Z,1.9
2023-02-27T03:57:37.373Z,1.9
2023-02-27T03:58:54.365Z,1.8
2023-02-27T04:00:11.378Z,2
2023-02-27T04:01:28.726Z,2.1
2023-02-27T04:02:45.389Z,2.3
2023-02-27T04:04:02.377Z,2.6
2023-02-27T04:05:19.395Z,2.8
2023-02-27T04:06:36.427Z,3
2023-02-27T04:07:53.399Z,3
2023-02-27T04:09:10.371Z,3.1
2023-02-27T04:10:27.392Z,3.1
2023-02-27T04:11:44.377Z,3.2
2023-02-27T04:13:02.128Z,3.1
2023-02-27T04:14:19.398Z,3
2023-02-27T04:15:36.383Z,2.9
2023-02-27T04:16:53.402Z,3
2023-02-27T04:18:10.466Z,3
2023-02-27T04:19:27.395Z,3
2023-02-27T04:20:44.406Z,3
2023-02-27T04:22:01.432Z,3.1
2023-02-27T04:23:18.424Z,3.2
2023-02-27T04:24:35.434Z,3.5
2023-02-27T04:25:52.393Z,3.7
2023-02-27T04:27:09.401Z,3.7
2023-02-27T04:28:26.443Z,3.6
2023-02-27T04:29:43.429Z,3.6
2023-02-27T04:31:00.610Z,3.7
2023-02-27T04:32:17.566Z,3.7
2023-02-27T04:33:34.432Z,3.6
2023-02-27T04:34:51.447Z,3.6
2023-02-27T04:36:08.415Z,3.6
2023-02-27T04:37:25.453Z,3.6
2023-02-27T04:38:42.440Z,3.6
2023-02-27T04:39:59.445Z,3.4
2023-02-27T04:41:16.454Z,3.3
2023-02-27T04:42:33.454Z,3
2023-02-27T04:43:50.506Z,3
2023-02-27T04:45:07.471Z,3.1
2023-02-27T04:46:24.436Z,3
2023-02-27T04:47:41.442Z,3
2023-02-27T04:48:58.491Z,2.9
2023-02-27T04:50:15.482Z,2.9
2023-02-27T04:51:32.439Z,2.7
2023-02-27T04:52:49.497Z,2.7
2023-02-27T04:54:06.443Z,2.8
2023-02-27T04:55:23.447Z,2.9
2023-02-27T04:56:40.457Z,3
2023-02-27T04:57:57.508Z,2.9
2023-02-27T04:59:14.480Z,2.8
2023-02-27T05:00:31.457Z,2.8
2023-02-27T05:01:48.566Z,2.6
2023-02-27T05:03:05.468Z,2.5
2023-02-27T05:04:22.484Z,2.3
2023-02-27T05:05:39.456Z,2.1
2023-02-27T05:06:56.458Z,2.1
2023-02-27T05:08:13.487Z,2.2
2023-02-27T05:09:30.479Z,2.3
2023-02-27T05:10:47.477Z,2.3
2023-02-27T05:12:04.490Z,2.3
2023-02-27T05:13:21.470Z,2.4
2023-02-27T05:14:38.490Z,2.5
2023-02-27T05:15:55.541Z,2.4
2023-02-27T05:17:12.481Z,2.4
2023-02-27T05:18:29.474Z,2.6
2023-02-27T05:19:46.568Z,2.7
2023-02-27T05:21:03.485Z,2.6
2023-02-27T05:22:20.523Z,2.6
2023-02-27T05:23:37.494Z,2.6
2023-02-27T05:24:54.503Z,2.5
2023-02-27T05:26:11.480Z,2.5
2023-02-27T05:27:28.485Z,2.7
2023-02-27T05:28:45.481Z,2.8
2023-02-27T05:30:02.608Z,3.1
2023-02-27T05:31:19.583Z,3.4
2023-02-27T05:32:36.540Z,3.5
2023-02-27T05:33:53.490Z,3.7
2023-02-27T05:35:10.527Z,3.8
2023-02-27T05:36:27.505Z,3.9
2023-02-27T05:37:44.501Z,3.9
2023-02-27T05:39:01.540Z,4
2023-02-27T05:40:18.570Z,4.1
2023-02-27T05:41:35.497Z,4.2
2023-02-27T05:42:52.502Z,4.1
2023-02-27T05:44:09.505Z,4.1
2023-02-27T05:45:26.544Z,3.9
2023-02-27T05:46:43.524Z,3.7
2023-02-27T05:48:00.534Z,3.6
2023-02-27T05:49:17.507Z,3.4
2023-02-27T05:50:34.553Z,3.2
2023-02-27T05:51:51.827Z,3.2
2023-02-27T05:53:09.539Z,3.2
2023-02-27T05:54:26.554Z,3
2023-02-27T05:55:43.576Z,2.9
2023-02-27T05:57:00.552Z,2.8
2023-02-27T05:58:17.574Z,2.9
2023-02-27T05:59:34.522Z,2.8
2023-02-27T06:00:51.539Z,2.7
2023-02-27T06:02:08.563Z,2.8
2023-02-27T06:03:25.654Z,2.9
2023-02-27T06:04:42.539Z,3
2023-02-27T06:05:59.534Z,2.8
2023-02-27T06:07:16.531Z,2.6
2023-02-27T06:08:33.628Z,2.2
2023-02-27T06:09:50.659Z,2.1
2023-02-27T06:11:07.561Z,1.8
2023-02-27T06:12:24.541Z,1.7
2023-02-27T06:13:42.244Z,1.8
2023-02-27T06:14:58.547Z,1.8
2023-02-27T06:16:15.628Z,1.7
2023-02-27T06:17:32.600Z,1.6
2023-02-27T06:18:49.575Z,1.6
2023-02-27T06:20:06.578Z,1.6
2023-02-27T06:21:23.583Z,1.8
2023-02-27T06:22:40.620Z,2
2023-02-27T06:23:57.569Z,2
2023-02-27T06:25:14.660Z,2.1
2023-02-27T06:26:31.661Z,2.3
2023-02-27T06:27:48.578Z,2.4
2023-02-27T06:29:05.572Z,2.5
2023-02-27T06:30:22.586Z,2.3
2023-02-27T06:31:39.629Z,2.2
2023-02-27T06:32:56.562Z,2.2
2023-02-27T06:34:13.571Z,2.3
2023-02-27T06:35:30.565Z,2.3
2023-02-27T06:36:47.620Z,2.4
2023-02-27T06:38:04.588Z,2.4
2023-02-27T06:39:21.559Z,2.3
2023-02-27T06:40:38.657Z,2.3
2023-02-27T06:41:55.575Z,2.3
2023-02-27T06:43:12.612Z,2.4
2023-02-27T06:44:29.570Z,2.5
2023-02-27T06:45:46.590Z,2.6
2023-02-27T06:47:03.624Z,2.7
2023-02-27T06:48:20.585Z,2.6
2023-02-27T06:49:37.940Z,2.5
2023-02-27T06:50:54.678Z,2.5
2023-02-27T06:52:11.651Z,2.5
2023-02-27T06:53:28.605Z,2.7
2023-02-27T06:54:45.662Z,2.8
2023-02-27T06:56:02.609Z,2.7
2023-02-27T06:57:19.635Z,2.7
2023-02-27T06:58:36.602Z,2.7
2023-02-27T06:59:53.611Z,2.6
2023-02-27T07:01:10.637Z,2.3
2023-02-27T07:02:27.663Z,2.3
2023-02-27T07:03:44.599Z,2.3
2023-02-27T07:05:03.136Z,2.4
2023-02-27T07:06:18.611Z,2.5
2023-02-27T07:07:37.650Z,2.6
2023-02-27T07:08:54.060Z,2.5
2023-02-27T07:10:09.614Z,2.4
2023-02-27T07:11:26.636Z,2.4
2023-02-27T07:12:43.638Z,2.5
2023-02-27T07:14:00.638Z,2.6
2023-02-27T07:15:17.631Z,2.5
2023-02-27T07:16:34.613Z,2.5
2023-02-27T07:17:51.667Z,2.7
2023-02-27T07:19:08.805Z,2.8
2023-02-27T07:20:25.626Z,3
2023-02-27T07:21:42.637Z,3
2023-02-27T07:22:59.655Z,3
2023-02-27T07:24:16.622Z,2.8
2023-02-27T07:25:33.628Z,2.5
2023-02-27T07:26:50.724Z,2.2
2023-02-27T07:28:07.674Z,2.1
2023-02-27T07:29:24.633Z,2.1
2023-02-27T07:30:41.636Z,2.2
2023-02-27T07:31:58.698Z,2.3
2023-02-27T07:33:15.701Z,2.4
2023-02-27T07:34:32.669Z,2.4
2023-02-27T07:35:49.740Z,2.3
2023-02-27T07:37:06.665Z,2.4
2023-02-27T07:38:23.690Z,2.4
2023-02-27T07:39:40.665Z,2.5
2023-02-27T07:40:57.644Z,2.7
2023-02-27T07:42:14.683Z,2.9
2023-02-27T07:43:31.699Z,3.2
2023-02-27T07:44:48.680Z,3.4
2023-02-27T07:46:05.703Z,3.6
2023-02-27T07:47:22.683Z,3.8
2023-02-27T07:48:39.678Z,4
2023-02-27T07:49:56.688Z,4.2
2023-02-27T07:51:13.662Z,4.3
2023-02-27T07:53:47.684Z,4
2023-02-27T07:55:04.686Z,3.9
2023-02-27T07:56:21.664Z,3.7
2023-02-27T07:57:38.742Z,3.6
2023-02-27T07:58:55.685Z,3.5
2023-02-27T08:00:12.687Z,3.2
2023-02-27T08:01:29.711Z,3
2023-02-27T08:02:46.723Z,2.8
2023-02-27T08:04:03.678Z,2.8
2023-02-27T08:05:20.756Z,2.8
2023-02-27T08:06:37.677Z,2.7
2023-02-27T08:07:54.750Z,2.6
2023-02-27T08:09:11.689Z,2.5
2023-02-27T08:10:28.814Z,2.6
2023-02-27T08:11:47.865Z,2.6
2023-02-27T08:13:02.792Z,2.5
2023-02-27T08:14:19.702Z,2.8
2023-02-27T08:15:36.736Z,3.2
2023-02-27T08:16:53.759Z,3.6
2023-02-27T08:18:10.878Z,3.8
2023-02-27T08:19:27.701Z,3.7
2023-02-27T08:20:44.709Z,3.9
2023-02-27T08:22:01.717Z,4
2023-02-27T08:23:18.757Z,4.1
2023-02-27T08:24:35.837Z,4.3
2023-02-27T08:25:52.698Z,4.5
2023-02-27T08:27:09.731Z,4.6
2023-02-27T08:28:26.867Z,4.7
2023-02-27T08:29:43.788Z,4.7
2023-02-27T08:31:00.720Z,4.8
2023-02-27T08:32:17.737Z,4.5
2023-02-27T08:33:34.743Z,4.4
2023-02-27T08:34:51.756Z,4.2
2023-02-27T08:36:08.761Z,4
2023-02-27T08:37:25.746Z,3.8
2023-02-27T08:38:42.717Z,3.6
2023-02-27T08:39:59.760Z,3.7
2023-02-27T08:41:16.754Z,3.7
2023-02-27T08:42:33.723Z,3.9
2023-02-27T08:43:50.744Z,4
2023-02-27T08:45:07.902Z,4.1
2023-02-27T08:46:25.095Z,4.3
2023-02-27T08:47:41.799Z,4.6
2023-02-27T08:48:58.845Z,5
2023-02-27T08:50:15.934Z,5.2
2023-02-27T08:51:32.870Z,5.4
2023-02-27T08:52:49.732Z,5.6
2023-02-27T08:54:06.738Z,5.9
2023-02-27T08:55:23.804Z,6.1
2023-02-27T08:56:40.767Z,6.3
2023-02-27T08:57:57.791Z,6.4
2023-02-27T08:59:14.846Z,6.5
2023-02-27T09:00:31.851Z,6.7
2023-02-27T09:01:48.746Z,6.8
2023-02-27T09:03:05.902Z,7
2023-02-27T09:04:22.752Z,6.9
2023-02-27T09:05:39.809Z,6.9
2023-02-27T09:06:56.763Z,7
2023-02-27T09:08:13.779Z,6.9
2023-02-27T09:09:30.782Z,6.7
2023-02-27T09:10:47.756Z,6.5
2023-02-27T09:12:04.761Z,6.5
2023-02-27T09:13:21.793Z,6.5
2023-02-27T09:14:38.786Z,6.4
2023-02-27T09:15:55.769Z,6.5
2023-02-27T09:17:12.787Z,6.7
2023-02-27T09:18:29.825Z,6.9
2023-02-27T09:19:46.807Z,7.1
2023-02-27T09:21:03.867Z,7.1
2023-02-27T09:22:20.784Z,7.1
2023-02-27T09:23:37.892Z,7
2023-02-27T09:24:54.836Z,6.7
2023-02-27T09:26:11.788Z,6.4
2023-02-27T09:27:28.800Z,5.9
2023-02-27T09:28:45.815Z,5.5
2023-02-27T09:30:02.834Z,5.5
2023-02-27T09:31:19.811Z,5.8
2023-02-27T09:32:36.849Z,6.2
2023-02-27T09:33:53.838Z,6.3
2023-02-27T09:35:10.816Z,6.3
2023-02-27T09:36:28.123Z,6.2
2023-02-27T09:37:44.815Z,6.3
2023-02-27T09:39:01.832Z,6.5
2023-02-27T09:40:18.823Z,6.5
2023-02-27T09:41:35.814Z,6.6
2023-02-27T09:42:52.850Z,6.8
2023-02-27T09:44:09.817Z,6.8
2023-02-27T09:45:26.912Z,6.6
2023-02-27T09:46:43.796Z,6.5
2023-02-27T09:48:00.802Z,6.4
2023-02-27T09:49:17.843Z,6.2
2023-02-27T09:50:34.816Z,6.1
2023-02-27T09:51:53.351Z,6
2023-02-27T09:53:08.811Z,5.8
2023-02-27T09:54:25.844Z,5.7
2023-02-27T09:55:42.817Z,5.5
2023-02-27T09:56:59.838Z,5.4
2023-02-27T09:58:16.820Z,5.3
2023-02-27T09:59:33.846Z,5.5
2023-02-27T10:00:50.871Z,5.7
2023-02-27T10:02:07.999Z,5.8
2023-02-27T10:03:24.963Z,5.9
2023-02-27T10:04:41.821Z,5.8
2023-02-27T10:05:58.833Z,5.9
2023-02-27T10:07:15.850Z,5.6
2023-02-27T10:08:32.858Z,5.2
2023-02-27T10:09:49.865Z,5.2
2023-02-27T10:11:06.824Z,5.4
2023-02-27T10:12:24.318Z,5.7
2023-02-27T10:13:41.859Z,5.9
2023-02-27T10:14:58.857Z,6.3
2023-02-27T10:16:16.253Z,6.7
2023-02-27T10:17:32.840Z,7.1
2023-02-27T10:18:49.844Z,7.6
2023-02-27T10:20:07.036Z,8.2
2023-02-27T10:21:23.878Z,8.7
2023-02-27T10:22:40.840Z,9.1
2023-02-27T10:23:57.869Z,9.5
2023-02-27T10:25:28.664Z,9.8
2023-02-27T10:26:31.877Z,9.9
2023-02-27T10:27:48.856Z,9.9
2023-02-27T10:29:05.861Z,9.9
2023-02-27T10:30:29.150Z,9.7
2023-02-27T10:31:39.928Z,9.6
2023-02-27T10:32:56.882Z,9.5
2023-02-27T10:34:13.882Z,9
2023-02-27T10:35:30.892Z,8.7
2023-02-27T10:36:48.283Z,8.7
2023-02-27T10:38:04.873Z,8.9
2023-02-27T10:39:21.924Z,9
2023-02-27T10:40:38.884Z,9.3
2023-02-27T10:41:55.900Z,9.4
2023-02-27T10:43:12.881Z,9.6
2023-02-27T10:44:29.913Z,9.6
2023-02-27T10:45:46.887Z,9.7
2023-02-27T10:47:03.932Z,9.7
2023-02-27T10:48:20.887Z,9.6
2023-02-27T10:49:37.883Z,9.6
2023-02-27T10:50:54.911Z,9.6
2023-02-27T10:52:11.889Z,9.6
2023-02-27T10:53:28.896Z,9.5
2023-02-27T10:54:46.041Z,9.2
2023-02-27T10:56:03.044Z,9.1
2023-02-27T10:57:20.900Z,8.9
2023-02-27T10:58:37.917Z,8.7
2023-02-27T10:59:55.043Z,8.5
2023-02-27T11:01:11.982Z,8.5
2023-02-27T11:02:28.939Z,8.4
2023-02-27T11:03:45.897Z,8.1
2023-02-27T11:05:02.955Z,7.9
2023-02-27T11:06:19.905Z,8
2023-02-27T11:07:36.894Z,8.2
2023-02-27T11:08:53.906Z,8.2
2023-02-27T11:10:10.991Z,8.2
2023-02-27T11:11:29.841Z,8.4
2023-02-27T11:12:47.003Z,8.1
2023-02-27T11:14:04.003Z,7.8
2023-02-27T11:15:20.942Z,7.5
2023-02-27T11:16:37.960Z,7.4
2023-02-27T11:17:55.088Z,7.3
2023-02-27T11:19:14.090Z,7
2023-02-27T11:20:28.945Z,6.8
2023-02-27T11:21:45.957Z,6.7
2023-02-27T11:23:03.021Z,6.9
2023-02-27T11:24:20.084Z,7.1
2023-02-27T11:25:36.926Z,7.4
2023-02-27T11:26:53.946Z,7.6
2023-02-27T11:28:11.009Z,7.8
2023-02-27T11:29:27.967Z,8.2
2023-02-27T11:30:44.970Z,8.6
2023-02-27T11:32:02.032Z,8.6
2023-02-27T11:33:18.988Z,8.4
2023-02-27T11:34:36.129Z,7.9
2023-02-27T11:35:56.953Z,7.6
2023-02-27T11:37:10.240Z,7.1
2023-02-27T11:38:26.963Z,6.7
2023-02-27T11:39:44.298Z,6.5
2023-02-27T11:41:00.974Z,6.5
2023-02-27T11:42:18.006Z,6.5
2023-02-27T11:43:34.994Z,6.6
2023-02-27T11:44:52.046Z,6.5
2023-02-27T11:46:23.832Z,6.5
2023-02-27T11:47:26.012Z,6.4
2023-02-27T11:48:43.071Z,6.3
2023-02-27T11:50:00.103Z,6.1
2023-02-27T11:51:16.973Z,6
2023-02-27T11:52:34.113Z,6.1
2023-02-27T11:53:51.998Z,6.3
2023-02-27T11:55:09.001Z,6.4
2023-02-27T11:56:25.978Z,6.6
2023-02-27T11:57:42.975Z,6.8
2023-02-27T11:59:03.294Z,6.9
2023-02-27T12:00:20.019Z,6.9
2023-02-27T12:01:37.002Z,7
2023-02-27T12:02:54.455Z,7
2023-02-27T12:04:11.114Z,6.8
2023-02-27T12:05:28.004Z,6.4
2023-02-27T12:06:44.991Z,6.3
2023-02-27T12:08:02.032Z,6.1
2023-02-27T12:09:19.217Z,6.2
2023-02-27T12:10:35.993Z,6.5
2023-02-27T12:11:53.000Z,6.6
2023-02-27T12:13:09.998Z,6.7
2023-02-27T12:14:27.095Z,6.8
2023-02-27T12:15:44.172Z,6.8
2023-02-27T12:17:01.020Z,6.8
2023-02-27T12:18:18.006Z,6.7
2023-02-27T12:19:35.093Z,6.5
2023-02-27T12:20:52.031Z,6.2
2023-02-27T12:22:09.016Z,6.1
2023-02-27T12:23:26.032Z,6.2
2023-02-27T12:24:43.057Z,6.2
2023-02-27T12:26:00.017Z,6.3
2023-02-27T12:27:17.124Z,6.3
2023-02-27T12:28:34.188Z,6.3
2023-02-27T12:29:51.035Z,6.3
2023-02-27T12:31:08.064Z,6.4
2023-02-27T12:32:25.259Z,6.4
2023-02-27T12:33:42.037Z,6.2
2023-02-27T12:34:59.169Z,6.1
2023-02-27T12:36:16.016Z,6.1
2023-02-27T12:37:33.056Z,6.2
2023-02-27T12:38:50.019Z,6.4
2023-02-27T12:40:08.071Z,6.6
2023-02-27T12:41:25.142Z,6.5
2023-02-27T12:42:42.046Z,6.5
2023-02-27T12:43:59.034Z,6.6
2023-02-27T12:45:16.067Z,6.5
2023-02-27T12:46:33.052Z,6.5
2023-02-27T12:47:50.091Z,6.3
2023-02-27T12:49:07.095Z,6.2
2023-02-27T12:50:24.192Z,6.1
2023-02-27T12:51:41.068Z,6.1
2023-02-27T12:52:58.036Z,6.1
2023-02-27T12:54:15.037Z,6.2
2023-02-27T12:55:32.108Z,6.3
2023-02-27T12:56:49.052Z,6.4
2023-02-27T12:58:06.102Z,6.6
2023-02-27T12:59:23.050Z,6.5
2023-02-27T13:00:40.087Z,6.3
2023-02-27T13:01:57.091Z,5.9
2023-02-27T13:03:14.090Z,5.8
2023-02-27T13:04:31.051Z,5.7
2023-02-27T13:05:48.089Z,5.7
2023-02-27T13:07:05.066Z,5.9
2023-02-27T13:08:22.100Z,5.9
2023-02-27T13:09:39.077Z,6
2023-02-27T13:10:56.112Z,6.1
2023-02-27T13:12:13.112Z,6.3
2023-02-27T13:13:30.076Z,6.3
2023-02-27T13:14:47.089Z,6.2
2023-02-27T13:16:04.092Z,6.3
2023-02-27T13:17:21.109Z,6.4
2023-02-27T13:18:38.099Z,6.6
2023-02-27T13:19:55.076Z,6.8
2023-02-27T13:21:12.143Z,7
2023-02-27T13:22:29.089Z,7.2
2023-02-27T13:23:46.143Z,7.4
2023-02-27T13:25:03.103Z,7.4
2023-02-27T13:26:20.116Z,7.1
2023-02-27T13:27:37.129Z,6.6
2023-02-27T13:28:54.105Z,6.2
2023-02-27T13:30:11.256Z,5.8
2023-02-27T13:31:28.390Z,5.7
2023-02-27T13:32:45.249Z,5.6
2023-02-27T13:34:02.127Z,5.7
2023-02-27T13:35:19.119Z,5.8
2023-02-27T13:36:36.128Z,5.9
2023-02-27T13:37:53.162Z,5.8
2023-02-27T13:39:10.114Z,5.8
2023-02-27T13:40:27.105Z,6
2023-02-27T13:41:44.147Z,6.3
2023-02-27T13:43:01.133Z,6.6
2023-02-27T13:44:18.205Z,6.8
2023-02-27T13:45:35.157Z,7
2023-02-27T13:46:52.139Z,7.3
2023-02-27T13:48:09.130Z,7.5
2023-02-27T13:49:29.437Z,7.3
2023-02-27T13:50:43.161Z,7.2
2023-02-27T13:52:00.155Z,7.1
2023-02-27T13:53:17.152Z,7.2
2023-02-27T13:54:34.161Z,7.3
2023-02-27T13:55:51.123Z,7.5
2023-02-27T13:57:08.127Z,7.6
2023-02-27T13:58:25.123Z,7.8
2023-02-27T13:59:42.195Z,7.8
2023-02-27T14:00:59.211Z,7.8
2023-02-27T14:02:16.184Z,7.8
2023-02-27T14:03:33.136Z,7.9
2023-02-27T14:04:50.183Z,7.9
2023-02-27T14:06:07.197Z,7.9
2023-02-27T14:07:24.171Z,7.9
2023-02-27T14:08:41.145Z,8
2023-02-27T14:09:58.246Z,8.1
2023-02-27T14:11:15.140Z,8.2
2023-02-27T14:12:43.886Z,8.2
2023-02-27T14:13:49.152Z,8.1
2023-02-27T14:15:06.190Z,8.1
2023-02-27T14:16:23.222Z,8.1
2023-02-27T14:17:40.196Z,8.1
2023-02-27T14:18:57.155Z,8.1
2023-02-27T14:20:14.157Z,8.1
2023-02-27T14:21:31.161Z,8.1
2023-02-27T14:22:48.221Z,8.1
2023-02-27T14:24:05.186Z,8.2
2023-02-27T14:25:22.188Z,8.2
2023-02-27T14:26:39.211Z,8.2
2023-02-27T14:27:59.136Z,8
2023-02-27T14:29:23.146Z,7.9
2023-02-27T14:30:40.243Z,7.9
2023-02-27T14:31:57.175Z,7.9
2023-02-27T14:33:14.194Z,7.9
2023-02-27T14:34:31.272Z,7.8
2023-02-27T14:35:48.224Z,7.8
2023-02-27T14:37:05.191Z,7.8
2023-02-27T14:38:22.397Z,7.5
2023-02-27T14:39:39.442Z,7.4
2023-02-27T14:40:56.209Z,7.2
2023-02-27T14:42:13.270Z,7
2023-02-27T14:43:30.223Z,6.8
2023-02-27T14:44:47.255Z,6.6
2023-02-27T14:46:04.287Z,6.4
2023-02-27T14:47:21.196Z,6.3
2023-02-27T14:48:38.319Z,6.3
2023-02-27T14:49:55.402Z,6.2
2023-02-27T14:51:12.228Z,6.1
2023-02-27T14:52:29.218Z,6.2
2023-02-27T14:53:46.251Z,6
2023-02-27T14:55:03.351Z,5.9
2023-02-27T14:56:20.232Z,5.9
2023-02-27T14:57:37.249Z,6.2
2023-02-27T14:59:03.522Z,6.3
2023-02-27T15:00:11.272Z,6.5
2023-02-27T15:01:28.512Z,6.7
2023-02-27T15:02:45.221Z,6.8
2023-02-27T15:04:02.443Z,7
2023-02-27T15:05:19.248Z,7.1
2023-02-27T15:06:36.223Z,7.2
2023-02-27T15:07:53.246Z,7.2
2023-02-27T15:09:10.266Z,7.2
2023-02-27T15:10:27.254Z,7.3
2023-02-27T15:11:48.860Z,7.4
2023-02-27T15:13:01.223Z,7.5
2023-02-27T15:14:18.281Z,7.6
2023-02-27T15:15:35.304Z,7.4
2023-02-27T15:16:54.027Z,7.3
2023-02-27T15:18:09.237Z,7.2
2023-02-27T15:19:26.299Z,7.3
2023-02-27T15:20:43.282Z,7.4
2023-02-27T15:22:00.262Z,7.4
2023-02-27T15:23:17.459Z,7.5
2023-02-27T15:24:47.723Z,7.6
2023-02-27T15:25:51.329Z,7.5
2023-02-27T15:27:08.257Z,7.4
2023-02-27T15:28:25.328Z,7.2
2023-02-27T15:29:42.468Z,7
2023-02-27T15:30:59.330Z,7.1
2023-02-27T15:32:16.307Z,7.1
2023-02-27T15:33:33.432Z,7.1
2023-02-27T15:34:50.260Z,7.1
2023-02-27T15:36:07.294Z,7.2
2023-02-27T15:37:25.012Z,7.1
2023-02-27T15:38:42.290Z,7.1
2023-02-27T15:39:59.332Z,7.1
2023-02-27T15:41:16.311Z,7.2
2023-02-27T15:42:33.306Z,7.1
2023-02-27T15:43:50.290Z,7.1
2023-02-27T15:45:07.313Z,7.1
2023-02-27T15:46:24.647Z,7.1
2023-02-27T15:47:43.639Z,7.1
2023-02-27T15:48:58.277Z,7.1
2023-02-27T15:50:15.279Z,7.1
2023-02-27T15:51:32.334Z,7.1
2023-02-27T15:52:49.273Z,7.2
2023-02-27T15:54:06.671Z,7.2
2023-02-27T15:55:23.337Z,7.1
2023-02-27T15:56:40.312Z,7.1
2023-02-27T15:58:03.029Z,7.1
2023-02-27T15:59:14.366Z,7
2023-02-27T16:00:31.298Z,6.9
2023-02-27T16:01:48.374Z,6.7
2023-02-27T16:03:05.393Z,6.5
2023-02-27T16:04:22.284Z,6.3
2023-02-27T16:05:39.300Z,6.2
2023-02-27T16:06:56.307Z,6
2023-02-27T16:08:13.890Z,6
2023-02-27T16:09:32.324Z,6
2023-02-27T16:10:49.349Z,5.9
2023-02-27T16:12:06.500Z,5.8
2023-02-27T16:13:23.386Z,5.9
2023-02-27T16:14:40.310Z,6
2023-02-27T16:15:57.308Z,6.2
2023-02-27T16:17:14.351Z,6.3
2023-02-27T16:18:32.385Z,6.5
2023-02-27T16:19:49.457Z,6.5
2023-02-27T16:21:06.341Z,6.6
2023-02-27T16:22:23.344Z,6.6
2023-02-27T16:23:40.353Z,6.6
2023-02-27T16:24:57.326Z,6.7
2023-02-27T16:26:14.446Z,6.7
2023-02-27T16:27:31.324Z,6.8
2023-02-27T16:28:48.391Z,6.8
2023-02-27T16:30:05.330Z,6.8
2023-02-27T16:31:22.357Z,6.9
2023-02-27T16:32:39.359Z,6.9
2023-02-27T16:33:56.389Z,6.9
2023-02-27T16:35:13.317Z,6.9
2023-02-27T16:36:30.737Z,6.7
2023-02-27T16:37:47.369Z,6.7
2023-02-27T16:39:04.362Z,6.7
2023-02-27T16:40:22.205Z,6.7
2023-02-27T16:41:39.391Z,6.7
2023-02-27T16:42:56.366Z,6.7
2023-02-27T16:44:13.388Z,6.8
2023-02-27T16:45:30.339Z,6.8
2023-02-27T16:46:47.387Z,6.8
2023-02-27T16:48:04.386Z,6.8
2023-02-27T16:49:21.349Z,6.7
2023-02-27T16:50:38.373Z,6.7
2023-02-27T16:51:55.350Z,6.7
2023-02-27T16:53:12.348Z,6.8
2023-02-27T16:54:29.399Z,6.8
2023-02-27T16:55:46.378Z,6.8
2023-02-27T16:57:03.383Z,6.8
2023-02-27T16:58:20.366Z,6.7
2023-02-27T16:59:37.392Z,6.7
2023-02-27T17:00:54.417Z,6.7
2023-02-27T17:02:11.372Z,6.7
2023-02-27T17:03:28.384Z,6.7
2023-02-27T17:04:45.429Z,6.7
2023-02-27T17:06:02.369Z,6.7
2023-02-27T17:07:19.387Z,6.7
2023-02-27T17:08:36.457Z,6.8
2023-02-27T17:09:53.414Z,6.7
2023-02-27T17:11:10.430Z,6.5
2023-02-27T17:12:27.423Z,6.2
2023-02-27T17:13:44.445Z,6.1
2023-02-27T17:15:01.421Z,5.9
2023-02-27T17:16:18.450Z,5.8
2023-02-27T17:17:35.395Z,5.6
2023-02-27T17:18:52.403Z,5.5
2023-02-27T17:20:09.468Z,5.5
2023-02-27T17:21:26.409Z,5.5
2023-02-27T17:22:43.394Z,5.4
2023-02-27T17:24:00.404Z,5.4
2023-02-27T17:25:17.453Z,5.6
2023-02-27T17:26:34.430Z,5.7
2023-02-27T17:27:51.423Z,5.9
2023-02-27T17:29:08.415Z,6
2023-02-27T17:30:25.481Z,6.1
2023-02-27T17:31:42.435Z,6.3
2023-02-27T17:33:00.740Z,6.3
2023-02-27T17:34:16.826Z,6.3
2023-02-27T17:35:33.449Z,6.4
2023-02-27T17:36:50.432Z,6.4
2023-02-27T17:38:07.570Z,6.4
2023-02-27T17:39:24.446Z,6.4
2023-02-27T17:40:41.446Z,6.4
2023-02-27T17:41:58.416Z,6.4
2023-02-27T17:43:15.471Z,6.4
2023-02-27T17:44:32.480Z,6.3
2023-02-27T17:45:49.441Z,6.3
2023-02-27T17:47:06.435Z,6.3
2023-02-27T17:48:23.435Z,6.3